Aktuell METAR/TAF ESNU/UME

120550Z 04006KT 7000 -SN FEW007 BKN011 M04/M05 Q1013 RWY 14 ICE 0-10 PCT FCT 0.60=

120530Z 1206/1215 34004KT 9999 -SN SCT007 BKN025 TEMPO 1206/1212 1200 SN VV007 PROB40 1212/1215 BKN008=
Källa: Luftfartsverket (aro.lfv.se)